sensor_id;sensor_type;location;lat;lon;timestamp;P1;durP1;ratioP1;P2;durP2;ratioP2
22754;SDS011;11544;42.020;23.094;2023-07-24T00:01:22;17.02;;;12.48;;
22754;SDS011;11544;42.020;23.094;2023-07-24T00:03:49;15.88;;;11.30;;
22754;SDS011;11544;42.020;23.094;2023-07-24T00:06:16;17.65;;;12.10;;
22754;SDS011;11544;42.020;23.094;2023-07-24T00:08:43;16.27;;;10.68;;
22754;SDS011;11544;42.020;23.094;2023-07-24T00:11:11;16.10;;;11.02;;
22754;SDS011;11544;42.020;23.094;2023-07-24T00:13:38;15.98;;;11.20;;
22754;SDS011;11544;42.020;23.094;2023-07-24T00:16:08;18.92;;;11.15;;
22754;SDS011;11544;42.020;23.094;2023-07-24T00:18:35;20.10;;;11.57;;
22754;SDS011;11544;42.020;23.094;2023-07-24T00:21:02;17.65;;;11.60;;
22754;SDS011;11544;42.020;23.094;2023-07-24T00:23:29;19.30;;;10.88;;
22754;SDS011;11544;42.020;23.094;2023-07-24T00:25:56;16.30;;;11.25;;
22754;SDS011;11544;42.020;23.094;2023-07-24T00:28:24;16.58;;;11.10;;
22754;SDS011;11544;42.020;23.094;2023-07-24T00:30:51;20.45;;;12.43;;
22754;SDS011;11544;42.020;23.094;2023-07-24T00:33:18;18.88;;;11.30;;
22754;SDS011;11544;42.020;23.094;2023-07-24T00:35:45;18.83;;;11.95;;
22754;SDS011;11544;42.020;23.094;2023-07-24T00:38:12;16.35;;;10.93;;
22754;SDS011;11544;42.020;23.094;2023-07-24T00:40:39;17.40;;;11.15;;
22754;SDS011;11544;42.020;23.094;2023-07-24T00:43:06;17.65;;;11.80;;
22754;SDS011;11544;42.020;23.094;2023-07-24T00:45:33;17.23;;;10.88;;
22754;SDS011;11544;42.020;23.094;2023-07-24T00:48:00;15.80;;;11.68;;
22754;SDS011;11544;42.020;23.094;2023-07-24T00:50:27;15.57;;;11.50;;
22754;SDS011;11544;42.020;23.094;2023-07-24T00:52:55;15.82;;;10.43;;
22754;SDS011;11544;42.020;23.094;2023-07-24T00:55:24;17.85;;;11.30;;
22754;SDS011;11544;42.020;23.094;2023-07-24T00:57:51;17.02;;;11.13;;
22754;SDS011;11544;42.020;23.094;2023-07-24T01:00:18;17.73;;;11.93;;
22754;SDS011;11544;42.020;23.094;2023-07-24T01:02:45;17.25;;;10.77;;
22754;SDS011;11544;42.020;23.094;2023-07-24T01:05:13;17.08;;;12.18;;
22754;SDS011;11544;42.020;23.094;2023-07-24T01:07:43;19.83;;;11.18;;
22754;SDS011;11544;42.020;23.094;2023-07-24T01:10:10;16.23;;;10.90;;
22754;SDS011;11544;42.020;23.094;2023-07-24T01:15:32;18.92;;;12.57;;
22754;SDS011;11544;42.020;23.094;2023-07-24T01:18:06;15.50;;;10.95;;
22754;SDS011;11544;42.020;23.094;2023-07-24T01:20:38;15.68;;;11.35;;
22754;SDS011;11544;42.020;23.094;2023-07-24T01:25:58;16.88;;;11.20;;
22754;SDS011;11544;42.020;23.094;2023-07-24T01:28:27;18.40;;;11.40;;
22754;SDS011;11544;42.020;23.094;2023-07-24T01:30:54;15.48;;;10.93;;
22754;SDS011;11544;42.020;23.094;2023-07-24T01:33:40;15.80;;;10.75;;
22754;SDS011;11544;42.020;23.094;2023-07-24T01:36:08;17.42;;;11.60;;
22754;SDS011;11544;42.020;23.094;2023-07-24T01:38:36;17.88;;;11.93;;
22754;SDS011;11544;42.020;23.094;2023-07-24T01:41:04;14.55;;;10.73;;
22754;SDS011;11544;42.020;23.094;2023-07-24T01:43:32;16.63;;;11.68;;
22754;SDS011;11544;42.020;23.094;2023-07-24T01:45:59;19.85;;;12.57;;
22754;SDS011;11544;42.020;23.094;2023-07-24T01:48:26;19.00;;;12.02;;
22754;SDS011;11544;42.020;23.094;2023-07-24T01:50:53;23.48;;;11.70;;
22754;SDS011;11544;42.020;23.094;2023-07-24T01:53:20;18.85;;;12.63;;
22754;SDS011;11544;42.020;23.094;2023-07-24T01:55:47;20.52;;;12.32;;
22754;SDS011;11544;42.020;23.094;2023-07-24T01:58:14;18.13;;;11.98;;
22754;SDS011;11544;42.020;23.094;2023-07-24T02:00:41;17.70;;;11.63;;
22754;SDS011;11544;42.020;23.094;2023-07-24T02:03:08;16.63;;;11.38;;
22754;SDS011;11544;42.020;23.094;2023-07-24T02:05:36;17.67;;;11.68;;
22754;SDS011;11544;42.020;23.094;2023-07-24T02:08:03;17.35;;;11.65;;
22754;SDS011;11544;42.020;23.094;2023-07-24T02:10:30;17.98;;;12.38;;
22754;SDS011;11544;42.020;23.094;2023-07-24T02:12:57;16.90;;;11.00;;
22754;SDS011;11544;42.020;23.094;2023-07-24T02:15:24;18.33;;;11.43;;
22754;SDS011;11544;42.020;23.094;2023-07-24T02:17:51;15.45;;;10.82;;
22754;SDS011;11544;42.020;23.094;2023-07-24T02:20:18;17.33;;;11.73;;
22754;SDS011;11544;42.020;23.094;2023-07-24T02:22:45;16.52;;;11.80;;
22754;SDS011;11544;42.020;23.094;2023-07-24T02:25:13;17.05;;;11.52;;
22754;SDS011;11544;42.020;23.094;2023-07-24T02:27:40;17.13;;;11.35;;
22754;SDS011;11544;42.020;23.094;2023-07-24T02:30:07;18.65;;;11.90;;
22754;SDS011;11544;42.020;23.094;2023-07-24T02:32:34;17.20;;;11.95;;
22754;SDS011;11544;42.020;23.094;2023-07-24T02:35:01;16.67;;;11.25;;
22754;SDS011;11544;42.020;23.094;2023-07-24T02:37:28;17.40;;;11.57;;
22754;SDS011;11544;42.020;23.094;2023-07-24T02:39:55;16.60;;;11.38;;
22754;SDS011;11544;42.020;23.094;2023-07-24T02:42:23;19.88;;;11.65;;
22754;SDS011;11544;42.020;23.094;2023-07-24T02:44:50;17.67;;;11.80;;
22754;SDS011;11544;42.020;23.094;2023-07-24T02:47:16;18.10;;;11.15;;
22754;SDS011;11544;42.020;23.094;2023-07-24T02:49:43;16.80;;;11.43;;
22754;SDS011;11544;42.020;23.094;2023-07-24T02:52:10;16.30;;;10.80;;
22754;SDS011;11544;42.020;23.094;2023-07-24T02:54:37;17.33;;;11.38;;
22754;SDS011;11544;42.020;23.094;2023-07-24T02:57:04;16.75;;;10.98;;
22754;SDS011;11544;42.020;23.094;2023-07-24T02:59:32;17.77;;;12.13;;
22754;SDS011;11544;42.020;23.094;2023-07-24T03:01:59;18.75;;;11.30;;
22754;SDS011;11544;42.020;23.094;2023-07-24T03:04:26;19.02;;;12.25;;
22754;SDS011;11544;42.020;23.094;2023-07-24T03:06:53;16.67;;;10.70;;
22754;SDS011;11544;42.020;23.094;2023-07-24T03:09:20;16.25;;;11.43;;
22754;SDS011;11544;42.020;23.094;2023-07-24T03:11:47;18.80;;;11.05;;
22754;SDS011;11544;42.020;23.094;2023-07-24T03:14:14;19.17;;;11.95;;
22754;SDS011;11544;42.020;23.094;2023-07-24T03:16:41;16.40;;;10.77;;
22754;SDS011;11544;42.020;23.094;2023-07-24T03:19:07;18.70;;;11.10;;
22754;SDS011;11544;42.020;23.094;2023-07-24T03:21:34;16.77;;;11.65;;
22754;SDS011;11544;42.020;23.094;2023-07-24T03:24:01;15.38;;;10.75;;
22754;SDS011;11544;42.020;23.094;2023-07-24T03:26:29;17.13;;;10.80;;
22754;SDS011;11544;42.020;23.094;2023-07-24T03:28:56;16.83;;;10.85;;
22754;SDS011;11544;42.020;23.094;2023-07-24T03:31:23;18.92;;;11.30;;
22754;SDS011;11544;42.020;23.094;2023-07-24T03:33:50;18.77;;;11.63;;
22754;SDS011;11544;42.020;23.094;2023-07-24T03:36:17;17.52;;;11.63;;
22754;SDS011;11544;42.020;23.094;2023-07-24T03:38:44;17.70;;;11.38;;
22754;SDS011;11544;42.020;23.094;2023-07-24T03:41:11;18.60;;;11.15;;
22754;SDS011;11544;42.020;23.094;2023-07-24T03:43:40;19.67;;;12.10;;
22754;SDS011;11544;42.020;23.094;2023-07-24T03:46:08;18.50;;;11.52;;
22754;SDS011;11544;42.020;23.094;2023-07-24T03:48:38;17.63;;;11.35;;
22754;SDS011;11544;42.020;23.094;2023-07-24T03:51:04;16.98;;;11.63;;
22754;SDS011;11544;42.020;23.094;2023-07-24T03:53:31;18.33;;;11.45;;
22754;SDS011;11544;42.020;23.094;2023-07-24T03:56:02;19.48;;;11.25;;
22754;SDS011;11544;42.020;23.094;2023-07-24T03:58:30;18.83;;;11.88;;
22754;SDS011;11544;42.020;23.094;2023-07-24T04:00:57;19.85;;;12.00;;
22754;SDS011;11544;42.020;23.094;2023-07-24T04:03:24;16.35;;;10.68;;
22754;SDS011;11544;42.020;23.094;2023-07-24T04:05:51;18.65;;;12.07;;
22754;SDS011;11544;42.020;23.094;2023-07-24T04:08:18;18.73;;;12.57;;
22754;SDS011;11544;42.020;23.094;2023-07-24T04:10:52;18.40;;;12.57;;
22754;SDS011;11544;42.020;23.094;2023-07-24T04:13:20;18.85;;;11.50;;
22754;SDS011;11544;42.020;23.094;2023-07-24T04:18:48;18.50;;;12.07;;
22754;SDS011;11544;42.020;23.094;2023-07-24T04:21:15;16.80;;;11.93;;
22754;SDS011;11544;42.020;23.094;2023-07-24T04:23:44;18.05;;;13.05;;
22754;SDS011;11544;42.020;23.094;2023-07-24T04:26:11;21.88;;;12.55;;
22754;SDS011;11544;42.020;23.094;2023-07-24T04:28:38;26.33;;;15.60;;
22754;SDS011;11544;42.020;23.094;2023-07-24T04:31:05;25.63;;;13.88;;
22754;SDS011;11544;42.020;23.094;2023-07-24T04:33:32;26.48;;;15.48;;
22754;SDS011;11544;42.020;23.094;2023-07-24T04:35:59;31.38;;;15.48;;
22754;SDS011;11544;42.020;23.094;2023-07-24T04:38:26;25.05;;;14.00;;
22754;SDS011;11544;42.020;23.094;2023-07-24T04:40:55;19.70;;;13.85;;
22754;SDS011;11544;42.020;23.094;2023-07-24T04:43:22;24.95;;;14.45;;
22754;SDS011;11544;42.020;23.094;2023-07-24T04:45:59;22.33;;;13.32;;
22754;SDS011;11544;42.020;23.094;2023-07-24T04:48:26;23.08;;;13.85;;
22754;SDS011;11544;42.020;23.094;2023-07-24T04:50:54;23.98;;;13.38;;
22754;SDS011;11544;42.020;23.094;2023-07-24T04:53:36;27.00;;;14.63;;
22754;SDS011;11544;42.020;23.094;2023-07-24T04:56:04;30.15;;;14.75;;
22754;SDS011;11544;42.020;23.094;2023-07-24T04:58:31;21.23;;;14.25;;
22754;SDS011;11544;42.020;23.094;2023-07-24T05:01:04;23.10;;;13.57;;
22754;SDS011;11544;42.020;23.094;2023-07-24T05:03:44;28.88;;;14.60;;
22754;SDS011;11544;42.020;23.094;2023-07-24T05:06:35;26.17;;;14.45;;
22754;SDS011;11544;42.020;23.094;2023-07-24T05:09:06;23.83;;;13.93;;
22754;SDS011;11544;42.020;23.094;2023-07-24T05:11:58;24.17;;;14.13;;
22754;SDS011;11544;42.020;23.094;2023-07-24T05:14:25;28.73;;;15.40;;
22754;SDS011;11544;42.020;23.094;2023-07-24T05:22:09;25.08;;;13.25;;
22754;SDS011;11544;42.020;23.094;2023-07-24T05:24:37;26.75;;;14.70;;
22754;SDS011;11544;42.020;23.094;2023-07-24T05:27:04;25.98;;;14.35;;
22754;SDS011;11544;42.020;23.094;2023-07-24T05:29:32;24.92;;;14.27;;
22754;SDS011;11544;42.020;23.094;2023-07-24T05:31:59;29.80;;;14.75;;
22754;SDS011;11544;42.020;23.094;2023-07-24T05:34:26;41.72;;;15.63;;
22754;SDS011;11544;42.020;23.094;2023-07-24T05:36:53;30.40;;;13.68;;
22754;SDS011;11544;42.020;23.094;2023-07-24T05:39:20;22.63;;;14.27;;
22754;SDS011;11544;42.020;23.094;2023-07-24T05:41:47;23.60;;;14.68;;
22754;SDS011;11544;42.020;23.094;2023-07-24T05:44:15;20.50;;;14.05;;
22754;SDS011;11544;42.020;23.094;2023-07-24T05:46:42;19.67;;;14.07;;
22754;SDS011;11544;42.020;23.094;2023-07-24T05:49:09;24.40;;;14.48;;
22754;SDS011;11544;42.020;23.094;2023-07-24T05:51:36;24.85;;;14.63;;
22754;SDS011;11544;42.020;23.094;2023-07-24T05:54:03;34.92;;;14.30;;
22754;SDS011;11544;42.020;23.094;2023-07-24T05:56:30;25.60;;;14.65;;
22754;SDS011;11544;42.020;23.094;2023-07-24T05:58:57;22.23;;;13.68;;
22754;SDS011;11544;42.020;23.094;2023-07-24T06:01:24;26.65;;;14.15;;
22754;SDS011;11544;42.020;23.094;2023-07-24T06:03:51;20.85;;;14.63;;
22754;SDS011;11544;42.020;23.094;2023-07-24T06:06:19;21.52;;;14.73;;
22754;SDS011;11544;42.020;23.094;2023-07-24T06:08:46;23.52;;;14.90;;
22754;SDS011;11544;42.020;23.094;2023-07-24T06:11:13;22.20;;;14.82;;
22754;SDS011;11544;42.020;23.094;2023-07-24T06:13:40;26.58;;;14.63;;
22754;SDS011;11544;42.020;23.094;2023-07-24T06:16:07;20.17;;;15.55;;
22754;SDS011;11544;42.020;23.094;2023-07-24T06:18:34;21.92;;;14.55;;
22754;SDS011;11544;42.020;23.094;2023-07-24T06:21:01;20.83;;;14.43;;
22754;SDS011;11544;42.020;23.094;2023-07-24T06:23:28;22.92;;;14.60;;
22754;SDS011;11544;42.020;23.094;2023-07-24T06:25:55;21.52;;;14.40;;
22754;SDS011;11544;42.020;23.094;2023-07-24T06:28:22;21.55;;;13.98;;
22754;SDS011;11544;42.020;23.094;2023-07-24T06:30:51;19.73;;;13.80;;
22754;SDS011;11544;42.020;23.094;2023-07-24T06:33:19;24.83;;;14.63;;
22754;SDS011;11544;42.020;23.094;2023-07-24T06:35:48;24.30;;;14.90;;
22754;SDS011;11544;42.020;23.094;2023-07-24T06:38:16;22.73;;;14.52;;
22754;SDS011;11544;42.020;23.094;2023-07-24T06:40:43;25.17;;;14.43;;
22754;SDS011;11544;42.020;23.094;2023-07-24T06:43:10;18.42;;;13.57;;
22754;SDS011;11544;42.020;23.094;2023-07-24T06:45:37;23.77;;;14.50;;
22754;SDS011;11544;42.020;23.094;2023-07-24T06:48:04;25.20;;;15.00;;
22754;SDS011;11544;42.020;23.094;2023-07-24T06:50:31;24.80;;;15.25;;
22754;SDS011;11544;42.020;23.094;2023-07-24T06:52:59;20.90;;;14.70;;
22754;SDS011;11544;42.020;23.094;2023-07-24T06:55:26;23.90;;;14.02;;
22754;SDS011;11544;42.020;23.094;2023-07-24T06:57:53;24.05;;;14.25;;
22754;SDS011;11544;42.020;23.094;2023-07-24T07:00:20;20.75;;;13.85;;
22754;SDS011;11544;42.020;23.094;2023-07-24T07:02:47;24.17;;;15.10;;
22754;SDS011;11544;42.020;23.094;2023-07-24T07:05:14;21.90;;;14.27;;
22754;SDS011;11544;42.020;23.094;2023-07-24T07:07:41;25.48;;;14.07;;
22754;SDS011;11544;42.020;23.094;2023-07-24T07:10:08;25.05;;;15.35;;
22754;SDS011;11544;42.020;23.094;2023-07-24T07:12:35;25.00;;;15.10;;
22754;SDS011;11544;42.020;23.094;2023-07-24T07:15:02;27.65;;;15.27;;
22754;SDS011;11544;42.020;23.094;2023-07-24T07:17:29;24.83;;;15.52;;
22754;SDS011;11544;42.020;23.094;2023-07-24T07:19:56;24.60;;;14.65;;
22754;SDS011;11544;42.020;23.094;2023-07-24T07:22:24;28.88;;;15.55;;
22754;SDS011;11544;42.020;23.094;2023-07-24T07:24:50;27.33;;;13.88;;
22754;SDS011;11544;42.020;23.094;2023-07-24T07:27:18;21.98;;;14.80;;
22754;SDS011;11544;42.020;23.094;2023-07-24T07:29:45;20.13;;;15.05;;
22754;SDS011;11544;42.020;23.094;2023-07-24T07:32:12;22.83;;;14.68;;
22754;SDS011;11544;42.020;23.094;2023-07-24T07:34:39;22.55;;;14.55;;
22754;SDS011;11544;42.020;23.094;2023-07-24T07:37:06;22.38;;;15.43;;
22754;SDS011;11544;42.020;23.094;2023-07-24T07:39:33;24.42;;;14.48;;
22754;SDS011;11544;42.020;23.094;2023-07-24T07:42:00;28.27;;;14.82;;
22754;SDS011;11544;42.020;23.094;2023-07-24T07:44:43;20.30;;;13.35;;
22754;SDS011;11544;42.020;23.094;2023-07-24T07:47:10;21.45;;;14.65;;
22754;SDS011;11544;42.020;23.094;2023-07-24T07:49:37;24.23;;;14.80;;
22754;SDS011;11544;42.020;23.094;2023-07-24T07:52:05;19.73;;;14.30;;
22754;SDS011;11544;42.020;23.094;2023-07-24T07:54:32;23.08;;;13.68;;
22754;SDS011;11544;42.020;23.094;2023-07-24T07:56:59;20.60;;;14.23;;
22754;SDS011;11544;42.020;23.094;2023-07-24T07:59:27;19.55;;;14.20;;
22754;SDS011;11544;42.020;23.094;2023-07-24T08:01:54;24.73;;;14.35;;
22754;SDS011;11544;42.020;23.094;2023-07-24T08:04:21;20.27;;;13.95;;
22754;SDS011;11544;42.020;23.094;2023-07-24T08:06:48;19.88;;;13.38;;
22754;SDS011;11544;42.020;23.094;2023-07-24T08:09:15;29.73;;;14.40;;
22754;SDS011;11544;42.020;23.094;2023-07-24T08:11:44;21.35;;;13.65;;
22754;SDS011;11544;42.020;23.094;2023-07-24T08:14:11;16.52;;;14.15;;
22754;SDS011;11544;42.020;23.094;2023-07-24T08:16:38;17.23;;;12.80;;
22754;SDS011;11544;42.020;23.094;2023-07-24T08:19:05;19.13;;;15.18;;
22754;SDS011;11544;42.020;23.094;2023-07-24T08:21:33;19.27;;;13.82;;
22754;SDS011;11544;42.020;23.094;2023-07-24T08:24:00;19.05;;;13.35;;
22754;SDS011;11544;42.020;23.094;2023-07-24T08:26:28;20.73;;;14.27;;
22754;SDS011;11544;42.020;23.094;2023-07-24T08:28:56;21.65;;;14.68;;
22754;SDS011;11544;42.020;23.094;2023-07-24T08:31:23;19.33;;;13.60;;
22754;SDS011;11544;42.020;23.094;2023-07-24T08:33:50;21.70;;;14.43;;
22754;SDS011;11544;42.020;23.094;2023-07-24T08:36:17;18.83;;;13.02;;
22754;SDS011;11544;42.020;23.094;2023-07-24T08:38:45;20.85;;;13.57;;
22754;SDS011;11544;42.020;23.094;2023-07-24T08:41:12;22.73;;;14.30;;
22754;SDS011;11544;42.020;23.094;2023-07-24T08:43:41;21.33;;;12.98;;
22754;SDS011;11544;42.020;23.094;2023-07-24T08:46:09;19.63;;;13.63;;
22754;SDS011;11544;42.020;23.094;2023-07-24T08:49:05;17.02;;;12.57;;
22754;SDS011;11544;42.020;23.094;2023-07-24T08:51:33;17.80;;;13.40;;
22754;SDS011;11544;42.020;23.094;2023-07-24T08:54:09;20.48;;;13.48;;
22754;SDS011;11544;42.020;23.094;2023-07-24T08:56:37;20.25;;;13.73;;
22754;SDS011;11544;42.020;23.094;2023-07-24T08:59:08;18.77;;;12.68;;
22754;SDS011;11544;42.020;23.094;2023-07-24T09:01:35;19.58;;;13.02;;
22754;SDS011;11544;42.020;23.094;2023-07-24T09:04:02;18.95;;;13.77;;
22754;SDS011;11544;42.020;23.094;2023-07-24T09:06:29;19.95;;;13.52;;
22754;SDS011;11544;42.020;23.094;2023-07-24T09:08:57;18.13;;;13.38;;
22754;SDS011;11544;42.020;23.094;2023-07-24T09:11:24;18.52;;;13.70;;
22754;SDS011;11544;42.020;23.094;2023-07-24T09:13:51;18.52;;;14.07;;
22754;SDS011;11544;42.020;23.094;2023-07-24T09:16:21;22.77;;;14.35;;
22754;SDS011;11544;42.020;23.094;2023-07-24T09:18:50;18.48;;;14.45;;
22754;SDS011;11544;42.020;23.094;2023-07-24T09:21:31;22.83;;;15.70;;
22754;SDS011;11544;42.020;23.094;2023-07-24T09:24:14;18.48;;;14.50;;
22754;SDS011;11544;42.020;23.094;2023-07-24T09:26:52;19.98;;;15.75;;
22754;SDS011;11544;42.020;23.094;2023-07-24T09:29:30;21.27;;;15.02;;
22754;SDS011;11544;42.020;23.094;2023-07-24T09:31:58;16.77;;;13.23;;
22754;SDS011;11544;42.020;23.094;2023-07-24T09:34:26;19.25;;;14.23;;
22754;SDS011;11544;42.020;23.094;2023-07-24T09:36:53;23.02;;;17.40;;
22754;SDS011;11544;42.020;23.094;2023-07-24T09:39:26;18.63;;;14.77;;
22754;SDS011;11544;42.020;23.094;2023-07-24T09:42:05;22.08;;;14.48;;
22754;SDS011;11544;42.020;23.094;2023-07-24T09:44:32;21.13;;;14.32;;
22754;SDS011;11544;42.020;23.094;2023-07-24T09:46:59;18.25;;;14.20;;
22754;SDS011;11544;42.020;23.094;2023-07-24T09:49:47;20.70;;;15.93;;
22754;SDS011;11544;42.020;23.094;2023-07-24T09:52:15;19.20;;;13.30;;
22754;SDS011;11544;42.020;23.094;2023-07-24T09:54:55;20.75;;;15.23;;
22754;SDS011;11544;42.020;23.094;2023-07-24T09:57:26;18.15;;;14.65;;
22754;SDS011;11544;42.020;23.094;2023-07-24T09:59:56;20.17;;;13.60;;
22754;SDS011;11544;42.020;23.094;2023-07-24T10:02:23;17.23;;;13.85;;
22754;SDS011;11544;42.020;23.094;2023-07-24T10:04:51;18.92;;;14.40;;
22754;SDS011;11544;42.020;23.094;2023-07-24T10:07:19;18.58;;;12.88;;
22754;SDS011;11544;42.020;23.094;2023-07-24T10:09:49;15.70;;;12.60;;
22754;SDS011;11544;42.020;23.094;2023-07-24T10:12:25;17.98;;;13.70;;
22754;SDS011;11544;42.020;23.094;2023-07-24T10:15:00;18.17;;;13.95;;
22754;SDS011;11544;42.020;23.094;2023-07-24T10:17:38;17.08;;;12.68;;
22754;SDS011;11544;42.020;23.094;2023-07-24T10:20:16;17.25;;;13.35;;
22754;SDS011;11544;42.020;23.094;2023-07-24T10:22:54;16.27;;;12.98;;
22754;SDS011;11544;42.020;23.094;2023-07-24T10:25:28;15.32;;;11.95;;
22754;SDS011;11544;42.020;23.094;2023-07-24T10:28:02;19.17;;;12.13;;
22754;SDS011;11544;42.020;23.094;2023-07-24T10:30:33;16.80;;;12.10;;
22754;SDS011;11544;42.020;23.094;2023-07-24T10:33:05;18.50;;;13.27;;
22754;SDS011;11544;42.020;23.094;2023-07-24T10:35:44;15.95;;;11.93;;
22754;SDS011;11544;42.020;23.094;2023-07-24T10:38:19;16.65;;;11.40;;
22754;SDS011;11544;42.020;23.094;2023-07-24T10:41:01;16.45;;;11.65;;
22754;SDS011;11544;42.020;23.094;2023-07-24T10:43:39;17.52;;;12.10;;
22754;SDS011;11544;42.020;23.094;2023-07-24T10:46:15;15.65;;;11.30;;
22754;SDS011;11544;42.020;23.094;2023-07-24T10:48:44;18.38;;;11.57;;
22754;SDS011;11544;42.020;23.094;2023-07-24T10:51:26;19.63;;;11.98;;
22754;SDS011;11544;42.020;23.094;2023-07-24T10:53:54;17.00;;;11.55;;
22754;SDS011;11544;42.020;23.094;2023-07-24T10:56:21;15.90;;;10.70;;
22754;SDS011;11544;42.020;23.094;2023-07-24T10:58:48;14.95;;;10.20;;
22754;SDS011;11544;42.020;23.094;2023-07-24T11:01:15;17.48;;;9.73;;
22754;SDS011;11544;42.020;23.094;2023-07-24T11:03:44;15.70;;;9.73;;
22754;SDS011;11544;42.020;23.094;2023-07-24T11:06:14;13.38;;;8.68;;
22754;SDS011;11544;42.020;23.094;2023-07-24T11:08:42;15.73;;;9.75;;
22754;SDS011;11544;42.020;23.094;2023-07-24T11:11:16;15.75;;;9.30;;
22754;SDS011;11544;42.020;23.094;2023-07-24T11:13:44;13.32;;;8.88;;
22754;SDS011;11544;42.020;23.094;2023-07-24T11:16:11;14.88;;;9.13;;
22754;SDS011;11544;42.020;23.094;2023-07-24T11:18:47;17.00;;;9.65;;
22754;SDS011;11544;42.020;23.094;2023-07-24T11:21:20;14.20;;;9.75;;
22754;SDS011;11544;42.020;23.094;2023-07-24T11:23:48;14.75;;;9.45;;
22754;SDS011;11544;42.020;23.094;2023-07-24T11:26:18;11.75;;;9.20;;
22754;SDS011;11544;42.020;23.094;2023-07-24T11:28:46;15.63;;;8.45;;
22754;SDS011;11544;42.020;23.094;2023-07-24T11:31:14;13.88;;;9.65;;
22754;SDS011;11544;42.020;23.094;2023-07-24T11:33:55;14.48;;;9.00;;
22754;SDS011;11544;42.020;23.094;2023-07-24T11:36:28;12.23;;;8.48;;
22754;SDS011;11544;42.020;23.094;2023-07-24T11:38:55;11.60;;;7.93;;
22754;SDS011;11544;42.020;23.094;2023-07-24T11:41:22;13.65;;;8.60;;
22754;SDS011;11544;42.020;23.094;2023-07-24T11:43:50;13.10;;;8.95;;
22754;SDS011;11544;42.020;23.094;2023-07-24T11:46:24;11.90;;;8.48;;
22754;SDS011;11544;42.020;23.094;2023-07-24T11:49:14;13.15;;;8.80;;
22754;SDS011;11544;42.020;23.094;2023-07-24T11:51:59;13.10;;;8.30;;
22754;SDS011;11544;42.020;23.094;2023-07-24T11:54:26;13.40;;;8.25;;
22754;SDS011;11544;42.020;23.094;2023-07-24T11:56:57;12.13;;;8.60;;
22754;SDS011;11544;42.020;23.094;2023-07-24T11:59:24;12.15;;;9.05;;
22754;SDS011;11544;42.020;23.094;2023-07-24T12:01:51;14.70;;;9.02;;
22754;SDS011;11544;42.020;23.094;2023-07-24T12:04:21;12.68;;;8.50;;
22754;SDS011;11544;42.020;23.094;2023-07-24T12:07:06;13.50;;;8.20;;
22754;SDS011;11544;42.020;23.094;2023-07-24T12:09:34;12.77;;;7.80;;
22754;SDS011;11544;42.020;23.094;2023-07-24T12:12:04;12.32;;;7.93;;
22754;SDS011;11544;42.020;23.094;2023-07-24T12:14:38;13.60;;;8.75;;
22754;SDS011;11544;42.020;23.094;2023-07-24T12:17:34;13.82;;;9.18;;
22754;SDS011;11544;42.020;23.094;2023-07-24T12:20:01;11.77;;;8.15;;
22754;SDS011;11544;42.020;23.094;2023-07-24T12:22:29;13.57;;;8.43;;
22754;SDS011;11544;42.020;23.094;2023-07-24T12:24:56;10.90;;;8.32;;
22754;SDS011;11544;42.020;23.094;2023-07-24T12:27:23;11.75;;;8.30;;
22754;SDS011;11544;42.020;23.094;2023-07-24T12:29:51;15.65;;;8.80;;
22754;SDS011;11544;42.020;23.094;2023-07-24T12:32:22;15.80;;;8.75;;
22754;SDS011;11544;42.020;23.094;2023-07-24T12:34:50;15.80;;;8.98;;
22754;SDS011;11544;42.020;23.094;2023-07-24T12:37:17;13.63;;;7.60;;
22754;SDS011;11544;42.020;23.094;2023-07-24T12:39:47;17.13;;;9.15;;
22754;SDS011;11544;42.020;23.094;2023-07-24T12:42:28;13.75;;;8.48;;
22754;SDS011;11544;42.020;23.094;2023-07-24T12:44:55;14.82;;;8.70;;
22754;SDS011;11544;42.020;23.094;2023-07-24T12:47:24;13.82;;;7.95;;
22754;SDS011;11544;42.020;23.094;2023-07-24T12:49:51;16.48;;;8.93;;
22754;SDS011;11544;42.020;23.094;2023-07-24T12:52:21;14.13;;;9.05;;
22754;SDS011;11544;42.020;23.094;2023-07-24T12:54:48;15.88;;;8.98;;
22754;SDS011;11544;42.020;23.094;2023-07-24T12:57:26;14.68;;;9.02;;
22754;SDS011;11544;42.020;23.094;2023-07-24T12:59:54;19.17;;;9.85;;
22754;SDS011;11544;42.020;23.094;2023-07-24T13:02:21;10.98;;;8.27;;
22754;SDS011;11544;42.020;23.094;2023-07-24T13:04:48;15.05;;;8.75;;
22754;SDS011;11544;42.020;23.094;2023-07-24T13:07:15;11.63;;;8.60;;
22754;SDS011;11544;42.020;23.094;2023-07-24T13:09:42;13.73;;;9.32;;
22754;SDS011;11544;42.020;23.094;2023-07-24T13:12:10;13.13;;;8.23;;
22754;SDS011;11544;42.020;23.094;2023-07-24T13:14:37;14.27;;;8.70;;
22754;SDS011;11544;42.020;23.094;2023-07-24T13:17:08;14.68;;;8.57;;
22754;SDS011;11544;42.020;23.094;2023-07-24T13:19:35;16.70;;;9.10;;
22754;SDS011;11544;42.020;23.094;2023-07-24T13:22:03;12.15;;;8.38;;
22754;SDS011;11544;42.020;23.094;2023-07-24T13:24:34;13.05;;;8.63;;
22754;SDS011;11544;42.020;23.094;2023-07-24T13:27:01;14.35;;;8.18;;
22754;SDS011;11544;42.020;23.094;2023-07-24T13:29:29;14.93;;;8.27;;
22754;SDS011;11544;42.020;23.094;2023-07-24T13:31:58;12.75;;;8.50;;
22754;SDS011;11544;42.020;23.094;2023-07-24T13:34:57;12.02;;;8.65;;
22754;SDS011;11544;42.020;23.094;2023-07-24T13:37:23;15.07;;;8.45;;
22754;SDS011;11544;42.020;23.094;2023-07-24T13:39:51;12.10;;;8.45;;
22754;SDS011;11544;42.020;23.094;2023-07-24T13:42:18;12.82;;;8.25;;
22754;SDS011;11544;42.020;23.094;2023-07-24T13:44:45;15.88;;;9.27;;
22754;SDS011;11544;42.020;23.094;2023-07-24T13:47:27;15.50;;;8.40;;
22754;SDS011;11544;42.020;23.094;2023-07-24T13:50:07;12.43;;;7.88;;
22754;SDS011;11544;42.020;23.094;2023-07-24T13:52:35;13.60;;;8.18;;
22754;SDS011;11544;42.020;23.094;2023-07-24T13:55:02;14.73;;;8.52;;
22754;SDS011;11544;42.020;23.094;2023-07-24T13:57:29;14.02;;;8.98;;
22754;SDS011;11544;42.020;23.094;2023-07-24T13:59:56;11.43;;;8.02;;
22754;SDS011;11544;42.020;23.094;2023-07-24T14:02:23;17.13;;;8.35;;
22754;SDS011;11544;42.020;23.094;2023-07-24T14:04:50;12.43;;;8.32;;
22754;SDS011;11544;42.020;23.094;2023-07-24T14:07:19;11.90;;;8.50;;
22754;SDS011;11544;42.020;23.094;2023-07-24T14:09:46;13.90;;;9.10;;
22754;SDS011;11544;42.020;23.094;2023-07-24T14:12:14;16.77;;;9.23;;
22754;SDS011;11544;42.020;23.094;2023-07-24T14:14:41;10.82;;;8.40;;
22754;SDS011;11544;42.020;23.094;2023-07-24T14:17:08;13.15;;;8.60;;
22754;SDS011;11544;42.020;23.094;2023-07-24T14:19:35;15.02;;;8.98;;
22754;SDS011;11544;42.020;23.094;2023-07-24T14:22:02;15.52;;;8.35;;
22754;SDS011;11544;42.020;23.094;2023-07-24T14:24:29;16.20;;;8.65;;
22754;SDS011;11544;42.020;23.094;2023-07-24T14:26:56;14.52;;;8.75;;
22754;SDS011;11544;42.020;23.094;2023-07-24T14:29:24;18.25;;;8.95;;
22754;SDS011;11544;42.020;23.094;2023-07-24T14:31:51;17.70;;;8.57;;
22754;SDS011;11544;42.020;23.094;2023-07-24T14:34:18;14.80;;;8.80;;
22754;SDS011;11544;42.020;23.094;2023-07-24T14:36:48;16.48;;;9.30;;